createdAt,value
2019-05-15T00:00:03.638Z,3.72
2019-05-15T00:02:30.253Z,3.37
2019-05-15T00:04:58.506Z,2.70
2019-05-15T00:07:25.288Z,2.72
2019-05-15T00:09:51.896Z,2.75
2019-05-15T00:12:19.000Z,2.98
2019-05-15T00:14:45.661Z,2.20
2019-05-15T00:17:12.229Z,1.95
2019-05-15T00:19:39.013Z,1.82
2019-05-15T00:22:05.620Z,2.25
2019-05-15T00:24:32.192Z,1.98
2019-05-15T00:26:58.943Z,2.00
2019-05-15T00:29:25.587Z,1.98
2019-05-15T00:31:52.202Z,2.20
2019-05-15T00:34:18.790Z,1.82
2019-05-15T00:36:45.373Z,1.90
2019-05-15T00:39:12.000Z,2.00
2019-05-15T00:41:50.459Z,1.82
2019-05-15T00:44:09.056Z,1.95
2019-05-15T00:46:35.312Z,2.02
2019-05-15T00:49:01.882Z,2.25
2019-05-15T00:51:28.656Z,3.27
2019-05-15T00:53:55.295Z,2.52
2019-05-15T00:56:21.870Z,2.35
2019-05-15T00:58:48.489Z,2.40
2019-05-15T01:01:15.082Z,2.12
2019-05-15T01:03:41.695Z,2.27
2019-05-15T01:06:08.589Z,2.10
2019-05-15T01:08:35.361Z,2.08
2019-05-15T01:11:01.958Z,2.37
2019-05-15T01:13:28.537Z,2.22
2019-05-15T01:15:55.162Z,1.85
2019-05-15T01:18:21.742Z,2.00
2019-05-15T01:20:49.367Z,2.15
2019-05-15T01:23:18.592Z,2.45
2019-05-15T01:25:44.533Z,1.80
2019-05-15T01:28:11.114Z,2.20
2019-05-15T01:30:39.403Z,2.17
2019-05-15T01:33:08.276Z,4.60
2019-05-15T01:35:34.310Z,5.75
2019-05-15T01:38:00.923Z,6.97
2019-05-15T01:40:28.915Z,7.37
2019-05-15T01:42:55.681Z,6.92
2019-05-15T01:45:22.267Z,9.33
2019-05-15T01:47:48.851Z,5.50
2019-05-15T01:50:15.434Z,5.28
2019-05-15T01:52:42.038Z,4.58
2019-05-15T01:55:09.321Z,2.90
2019-05-15T01:57:38.256Z,2.98
2019-05-15T02:00:04.419Z,2.33
2019-05-15T02:02:31.007Z,2.52
2019-05-15T02:04:59.110Z,2.30
2019-05-15T02:07:27.977Z,1.77
2019-05-15T02:09:54.251Z,2.17
2019-05-15T02:12:20.832Z,2.08
2019-05-15T02:14:48.570Z,1.70
2019-05-15T02:17:15.335Z,1.62
2019-05-15T02:19:41.909Z,2.00
2019-05-15T02:22:08.494Z,1.70
2019-05-15T02:24:35.071Z,1.85
2019-05-15T02:27:01.700Z,2.00
2019-05-15T02:29:28.704Z,1.87
2019-05-15T02:31:58.811Z,1.82
2019-05-15T02:34:23.787Z,1.87
2019-05-15T02:36:50.384Z,2.02
2019-05-15T02:39:18.958Z,1.60
2019-05-15T02:41:45.300Z,2.22
2019-05-15T02:44:11.907Z,1.27
2019-05-15T02:46:39.177Z,1.62
2019-05-15T02:49:08.514Z,1.87
2019-05-15T02:51:34.338Z,2.02
2019-05-15T02:54:00.917Z,1.35
2019-05-15T02:56:29.271Z,2.08
2019-05-15T02:58:55.820Z,2.20
2019-05-15T03:01:22.411Z,2.10
2019-05-15T03:03:49.996Z,1.77
2019-05-15T03:06:19.227Z,1.82
2019-05-15T03:08:45.211Z,1.95
2019-05-15T03:11:11.786Z,1.87
2019-05-15T03:13:39.135Z,2.67
2019-05-15T03:16:06.084Z,2.08
2019-05-15T03:18:32.668Z,2.17
2019-05-15T03:21:00.431Z,2.40
2019-05-15T03:23:29.505Z,2.00
2019-05-15T03:25:55.579Z,2.50
2019-05-15T03:28:22.183Z,2.55
2019-05-15T03:31:14.680Z,2.02
2019-05-15T03:33:26.303Z,2.75
2019-05-15T03:35:45.466Z,2.37
2019-05-15T03:38:12.125Z,2.60
2019-05-15T03:40:39.694Z,2.20
2019-05-15T03:43:09.107Z,2.58
2019-05-15T03:45:35.043Z,2.37
2019-05-15T03:48:01.672Z,2.70
2019-05-15T03:50:29.097Z,2.52
2019-05-15T03:52:58.654Z,2.65
2019-05-15T03:55:24.228Z,2.65
2019-05-15T03:57:50.900Z,2.62
2019-05-15T04:00:19.542Z,2.65
2019-05-15T04:02:48.617Z,2.08
2019-05-15T04:05:14.091Z,2.37
2019-05-15T04:07:40.682Z,2.05
2019-05-15T04:10:09.925Z,2.62
2019-05-15T04:12:35.586Z,2.25
2019-05-15T04:15:02.156Z,3.12
2019-05-15T04:17:29.595Z,3.15
2019-05-15T04:19:58.768Z,1.92
2019-05-15T04:22:24.643Z,2.30
2019-05-15T04:24:51.252Z,2.33
2019-05-15T04:27:19.720Z,2.20
2019-05-15T04:29:49.035Z,2.60
2019-05-15T04:32:14.558Z,2.05
2019-05-15T04:34:41.138Z,2.37
2019-05-15T04:37:09.376Z,2.42
2019-05-15T04:39:36.205Z,2.47
2019-05-15T04:42:02.850Z,2.45
2019-05-15T04:44:29.415Z,2.92
2019-05-15T04:46:59.220Z,2.62
2019-05-15T04:49:24.331Z,2.33
2019-05-15T04:51:50.941Z,2.58
2019-05-15T04:54:20.048Z,2.67
2019-05-15T04:56:48.719Z,2.67
2019-05-15T04:59:14.186Z,2.37
2019-05-15T05:01:40.809Z,2.77
2019-05-15T05:04:09.419Z,2.30
2019-05-15T05:06:38.506Z,2.40
2019-05-15T05:09:04.039Z,2.10
2019-05-15T05:11:30.613Z,2.10
2019-05-15T05:13:59.140Z,2.65
2019-05-15T05:16:25.553Z,2.17
2019-05-15T05:18:52.141Z,2.83
2019-05-15T05:21:18.743Z,2.30
2019-05-15T05:23:45.336Z,2.52
2019-05-15T05:26:11.935Z,2.55
2019-05-15T05:28:38.523Z,2.17
2019-05-15T05:31:05.125Z,2.55
2019-05-15T05:33:31.754Z,2.35
2019-05-15T05:35:58.577Z,2.55
2019-05-15T05:38:25.323Z,2.35
2019-05-15T05:40:51.932Z,2.60
2019-05-15T05:43:18.545Z,2.67
2019-05-15T05:45:45.206Z,2.47
2019-05-15T05:48:11.813Z,2.95
2019-05-15T05:50:38.690Z,2.75
2019-05-15T05:53:05.359Z,2.83
2019-05-15T05:55:31.943Z,2.77
2019-05-15T05:57:58.541Z,2.52
2019-05-15T06:00:25.149Z,2.92
2019-05-15T06:02:52.488Z,2.83
2019-05-15T06:05:19.283Z,3.27
2019-05-15T06:07:45.840Z,3.15
2019-05-15T06:10:12.451Z,3.65
2019-05-15T06:12:39.234Z,3.67
2019-05-15T06:15:05.914Z,2.92
2019-05-15T06:17:32.527Z,3.12
2019-05-15T06:19:59.096Z,3.40
2019-05-15T06:22:27.581Z,3.20
2019-05-15T06:24:54.001Z,4.45
2019-05-15T06:27:20.593Z,4.58
2019-05-15T06:29:48.499Z,4.25
2019-05-15T06:32:15.251Z,3.52
2019-05-15T06:34:41.855Z,3.92
2019-05-15T06:37:08.496Z,4.12
2019-05-15T06:39:35.096Z,3.58
2019-05-15T06:42:01.711Z,3.85
2019-05-15T06:44:28.339Z,3.85
2019-05-15T06:46:54.915Z,4.33
2019-05-15T06:49:21.562Z,3.98
2019-05-15T06:51:48.754Z,3.90
2019-05-15T06:54:15.508Z,3.95
2019-05-15T06:56:42.343Z,4.22
2019-05-15T06:59:09.061Z,4.05
2019-05-15T07:01:35.690Z,5.00
2019-05-15T07:04:02.361Z,4.95
2019-05-15T07:06:28.931Z,5.17
2019-05-15T07:08:58.428Z,4.70
2019-05-15T07:11:23.872Z,5.42
2019-05-15T07:13:50.453Z,4.72
2019-05-15T07:16:18.179Z,4.65
2019-05-15T07:18:45.015Z,4.37
2019-05-15T07:21:11.634Z,5.15
2019-05-15T07:23:38.762Z,4.35
2019-05-15T07:26:05.608Z,4.55
2019-05-15T07:28:32.188Z,5.10
2019-05-15T07:30:58.766Z,4.50
2019-05-15T07:33:38.684Z,5.20
2019-05-15T07:35:53.702Z,5.35
2019-05-15T07:38:20.274Z,4.97
2019-05-15T07:40:55.492Z,5.00
2019-05-15T07:43:15.346Z,6.20
2019-05-15T07:45:44.289Z,4.53
2019-05-15T07:48:10.313Z,4.58
2019-05-15T07:50:38.653Z,5.78
2019-05-15T07:53:05.229Z,6.05
2019-05-15T07:55:31.812Z,5.62
2019-05-15T07:57:59.125Z,5.35
2019-05-15T08:00:28.718Z,5.60
2019-05-15T08:02:54.275Z,6.78
2019-05-15T08:05:20.909Z,5.17
2019-05-15T08:07:48.950Z,4.30
2019-05-15T08:10:18.146Z,4.70
2019-05-15T08:12:44.031Z,4.70
2019-05-15T08:23:13.151Z,3.47
2019-05-15T08:25:39.732Z,4.28
2019-05-15T08:28:08.800Z,4.75
2019-05-15T08:30:34.689Z,4.30
2019-05-15T08:33:01.304Z,3.67
2019-05-15T08:35:29.192Z,4.65
2019-05-15T08:37:57.991Z,4.92
2019-05-15T08:40:24.205Z,4.40
2019-05-15T08:42:57.138Z,4.20
2019-05-15T08:45:19.406Z,4.45
2019-05-15T08:47:46.012Z,4.20
2019-05-15T08:50:12.622Z,4.08
2019-05-15T08:52:39.577Z,5.08
2019-05-15T08:55:08.587Z,5.05
2019-05-15T08:57:34.817Z,5.30
2019-05-15T09:00:01.621Z,5.85
2019-05-15T09:02:28.700Z,5.08
2019-05-15T09:04:57.890Z,5.50
2019-05-15T09:07:23.893Z,6.20
2019-05-15T09:09:50.489Z,5.22
2019-05-15T09:12:18.883Z,5.75
2019-05-15T09:14:45.627Z,6.62
2019-05-15T09:17:12.277Z,8.20
2019-05-15T09:19:38.936Z,7.10
2019-05-15T09:22:05.557Z,7.55
2019-05-15T09:24:32.210Z,6.97
2019-05-15T09:26:59.457Z,7.15
2019-05-15T09:29:28.396Z,7.47
2019-05-15T09:31:54.712Z,6.90
2019-05-15T09:34:21.285Z,7.35
2019-05-15T09:36:48.607Z,7.30
2019-05-15T09:39:15.375Z,7.37
2019-05-15T09:41:41.960Z,6.28
2019-05-15T09:44:08.558Z,5.95
2019-05-15T09:46:38.308Z,5.90
2019-05-15T09:49:04.607Z,7.15
2019-05-15T10:10:40.788Z,5.50
2019-05-15T10:13:09.004Z,6.87
2019-05-15T10:15:38.809Z,6.72
2019-05-15T10:18:04.164Z,7.00
2019-05-15T10:20:30.734Z,7.75
2019-05-15T10:22:59.047Z,6.67
2019-05-15T10:25:28.028Z,6.75
2019-05-15T10:27:54.286Z,8.25
2019-05-15T10:30:20.969Z,8.35
2019-05-15T10:32:48.712Z,8.25
2019-05-15T10:35:25.590Z,9.75
2019-05-15T10:37:43.970Z,9.03
2019-05-15T10:40:10.537Z,9.13
2019-05-15T10:42:39.863Z,7.58
2019-05-15T10:45:05.427Z,10.25
2019-05-15T10:47:32.039Z,9.53
2019-05-15T10:50:00.167Z,7.62
2019-05-15T10:52:28.714Z,7.65
2019-05-15T10:54:58.147Z,7.42
2019-05-15T10:57:23.832Z,7.12
2019-05-15T10:59:50.462Z,7.15
2019-05-15T11:02:19.053Z,7.75
2019-05-15T11:04:45.347Z,6.70
2019-05-15T11:07:11.952Z,7.05
2019-05-15T11:09:40.640Z,7.08
2019-05-15T11:12:08.719Z,6.28
2019-05-15T11:14:37.954Z,6.15
2019-05-15T11:17:04.683Z,6.30
2019-05-15T11:19:36.125Z,5.55
2019-05-15T11:21:59.592Z,6.72
2019-05-15T11:24:28.281Z,6.92
2019-05-15T11:26:56.311Z,6.10
2019-05-15T11:29:22.801Z,6.35
2019-05-15T11:31:49.414Z,6.85
2019-05-15T11:34:18.513Z,7.50
2019-05-15T11:36:44.302Z,6.67
2019-05-15T11:39:10.986Z,5.22
2019-05-15T11:41:38.653Z,6.65
2019-05-15T11:44:05.553Z,5.87
2019-05-15T11:46:32.191Z,6.80
2019-05-15T11:48:59.110Z,7.75
2019-05-15T11:51:25.904Z,6.65
2019-05-15T11:53:52.510Z,5.55
2019-05-15T11:56:19.241Z,4.40
2019-05-15T11:58:45.904Z,6.22
2019-05-15T12:01:12.483Z,5.65
2019-05-15T12:03:39.210Z,6.83
2019-05-15T12:06:15.921Z,8.85
2019-05-15T12:08:34.112Z,8.95
2019-05-15T12:11:00.761Z,8.15
2019-05-15T12:13:29.297Z,7.78
2019-05-15T12:15:55.676Z,6.85
2019-05-15T12:18:22.262Z,7.05
2019-05-15T12:20:48.917Z,6.70
2019-05-15T12:23:15.686Z,5.97
2019-05-15T12:25:42.300Z,5.75
2019-05-15T12:30:40.391Z,5.33
2019-05-15T12:33:05.546Z,5.53
2019-05-15T12:35:32.160Z,5.45
2019-05-15T12:37:58.774Z,5.08
2019-05-15T13:00:12.153Z,6.35
2019-05-15T13:02:38.861Z,7.72
2019-05-15T13:05:05.507Z,6.97
2019-05-15T13:07:32.087Z,6.25
2019-05-15T13:09:58.726Z,11.68
2019-05-15T13:12:25.313Z,8.68
2019-05-15T13:14:51.907Z,7.62
2019-05-15T13:17:18.514Z,10.60
2019-05-15T13:19:45.098Z,19.32
2019-05-15T13:22:18.999Z,14.23
2019-05-15T13:24:40.028Z,13.70
2019-05-15T13:27:07.776Z,20.50
2019-05-15T13:29:34.495Z,15.38
2019-05-15T13:32:01.079Z,12.80
2019-05-15T13:34:30.556Z,13.10
2019-05-15T13:36:55.986Z,15.63
2019-05-15T13:39:22.577Z,12.03
2019-05-15T13:41:49.175Z,10.55
2019-05-15T13:44:18.255Z,14.78
2019-05-15T13:46:44.096Z,10.32
2019-05-15T13:49:10.710Z,11.15
2019-05-15T13:51:38.410Z,11.80
2019-05-15T13:54:05.311Z,12.63
2019-05-15T13:56:31.888Z,12.25
2019-05-15T13:58:58.846Z,12.50
2019-05-15T14:01:28.426Z,10.93
2019-05-15T14:03:54.050Z,10.55
2019-05-15T14:06:20.651Z,12.50
2019-05-15T14:08:48.787Z,10.32
2019-05-15T14:11:15.516Z,13.58
2019-05-15T14:13:42.122Z,14.10
2019-05-15T14:16:09.704Z,16.85
2019-05-15T14:18:38.927Z,12.45
2019-05-15T14:21:04.923Z,10.03
2019-05-15T14:23:31.542Z,13.18
2019-05-15T14:25:58.920Z,14.30
2019-05-15T14:28:28.382Z,12.25
2019-05-15T14:30:54.797Z,17.98
2019-05-15T14:33:21.551Z,12.50
2019-05-15T14:35:48.434Z,14.10
2019-05-15T14:38:15.175Z,12.30
2019-05-15T14:40:41.807Z,10.45
2019-05-15T14:43:09.084Z,9.40
2019-05-15T14:45:35.921Z,8.98
2019-05-15T14:48:02.583Z,8.03
2019-05-15T14:50:29.154Z,7.03
2019-05-15T14:52:55.757Z,6.70
2019-05-15T14:55:22.420Z,6.37
2019-05-15T14:57:49.023Z,6.25
2019-05-15T15:00:19.323Z,6.12
2019-05-15T15:02:44.012Z,6.37
2019-05-15T15:05:10.587Z,6.85
2019-05-15T15:07:38.099Z,6.15
2019-05-15T15:10:04.984Z,6.75
2019-05-15T15:12:31.552Z,6.22
2019-05-15T15:14:58.174Z,6.22
2019-05-15T15:17:24.746Z,6.65
2019-05-15T15:19:52.670Z,5.90
2019-05-15T15:22:19.696Z,6.53
2019-05-15T15:24:48.215Z,7.87
2019-05-15T15:27:14.608Z,6.20
2019-05-15T15:29:41.336Z,5.30
2019-05-15T15:32:08.009Z,6.58
2019-05-15T15:34:34.677Z,5.58
2019-05-15T15:37:01.252Z,6.72
2019-05-15T15:39:28.181Z,6.45
2019-05-15T15:41:54.850Z,5.22
2019-05-15T15:44:21.446Z,6.58
2019-05-15T15:46:48.601Z,7.05
2019-05-15T15:49:16.966Z,6.37
2019-05-15T15:51:43.921Z,6.30
2019-05-15T15:54:10.529Z,6.55
2019-05-15T15:56:39.224Z,6.85
2019-05-15T15:59:05.420Z,7.22
2019-05-15T16:01:31.995Z,6.35
2019-05-15T16:03:58.612Z,6.83
2019-05-15T16:06:25.374Z,7.00
2019-05-15T16:08:55.728Z,6.47
2019-05-15T16:11:20.319Z,7.03
2019-05-15T16:13:49.500Z,7.75
2019-05-15T16:16:15.243Z,7.70
2019-05-15T16:18:43.560Z,7.40
2019-05-15T16:21:10.131Z,7.05
2019-05-15T16:23:38.569Z,7.60
2019-05-15T16:26:05.275Z,6.90
2019-05-15T16:28:31.869Z,7.95
2019-05-15T16:30:58.756Z,7.50
2019-05-15T16:33:25.373Z,6.62
2019-05-15T16:35:51.992Z,15.70
2019-05-15T16:38:19.291Z,10.35
2019-05-15T16:40:46.035Z,9.80
2019-05-15T16:43:13.454Z,19.82
2019-05-15T16:45:40.070Z,17.30
2019-05-15T16:48:09.257Z,13.05
2019-05-15T16:50:34.988Z,14.80
2019-05-15T16:53:01.602Z,12.40
2019-05-15T16:55:28.639Z,6.83
2019-05-15T16:57:55.353Z,11.28
2019-05-15T17:00:21.970Z,22.77
2019-05-15T17:02:48.831Z,13.60
2019-05-15T17:05:15.444Z,13.20
2019-05-15T17:07:42.071Z,13.22
2019-05-15T17:10:08.836Z,7.55
2019-05-15T17:12:35.495Z,12.28
2019-05-15T17:15:02.112Z,9.90
2019-05-15T17:17:28.690Z,15.80
2019-05-15T17:19:55.295Z,10.53
2019-05-15T17:22:23.634Z,12.55
2019-05-15T17:24:50.230Z,12.20
2019-05-15T17:27:18.593Z,7.92
2019-05-15T17:29:45.350Z,6.97
2019-05-15T17:32:11.963Z,6.90
2019-05-15T17:34:38.580Z,5.83
2019-05-15T17:37:05.160Z,7.37
2019-05-15T17:39:36.610Z,7.60
2019-05-15T17:42:00.079Z,7.03
2019-05-15T17:44:28.681Z,8.98
2019-05-15T17:46:54.981Z,7.10
2019-05-15T17:49:21.568Z,7.40
2019-05-15T17:51:48.842Z,6.83
2019-05-15T17:54:18.051Z,5.75
2019-05-15T17:56:43.954Z,6.72
2019-05-15T17:59:10.544Z,6.80
2019-05-15T18:01:38.300Z,5.90
2019-05-15T18:04:05.125Z,6.97
2019-05-15T18:06:31.685Z,6.55
2019-05-15T18:08:59.282Z,7.28
2019-05-15T18:11:27.844Z,5.92
2019-05-15T18:13:54.563Z,6.72
2019-05-15T18:16:21.142Z,6.80
2019-05-15T18:18:47.987Z,6.85
2019-05-15T18:21:15.261Z,7.58
2019-05-15T18:23:41.900Z,6.97
2019-05-15T18:26:09.081Z,7.53
2019-05-15T18:28:38.586Z,7.40
2019-05-15T18:31:04.202Z,7.55
2019-05-15T18:33:30.816Z,7.87
2019-05-15T18:35:58.119Z,7.05
2019-05-15T18:38:24.965Z,7.05
2019-05-15T18:40:53.783Z,7.67
2019-05-15T18:43:20.367Z,8.13
2019-05-15T18:45:47.755Z,8.40
2019-05-15T18:48:14.425Z,8.55
2019-05-15T18:50:41.049Z,8.65
2019-05-15T18:53:08.966Z,7.72
2019-05-15T18:55:38.444Z,8.28
2019-05-15T18:58:04.152Z,9.18
2019-05-15T19:00:30.769Z,8.35
2019-05-15T19:02:59.505Z,6.97
2019-05-15T19:05:27.893Z,8.20
2019-05-15T19:07:54.182Z,8.28
2019-05-15T19:10:20.792Z,8.98
2019-05-15T19:12:48.415Z,8.50
2019-05-15T19:15:15.152Z,9.03
2019-05-15T19:17:41.756Z,9.65
2019-05-15T19:20:08.762Z,10.18
2019-05-15T19:22:40.633Z,9.83
2019-05-15T19:25:04.344Z,8.38
2019-05-15T19:27:31.949Z,8.90
2019-05-15T19:29:59.106Z,9.58
2019-05-15T19:32:27.845Z,8.60
2019-05-15T19:34:54.230Z,7.50
2019-05-15T19:37:20.811Z,8.73
2019-05-15T19:39:47.997Z,9.03
2019-05-15T19:42:14.847Z,7.95
2019-05-15T19:44:41.443Z,8.80
2019-05-15T19:47:08.147Z,8.85
2019-05-15T19:49:34.718Z,7.17
2019-05-15T19:52:01.318Z,7.37
2019-05-15T19:54:28.909Z,7.58
2019-05-15T19:56:55.676Z,7.67
2019-05-15T20:01:53.810Z,7.08
2019-05-15T20:04:20.422Z,7.55
2019-05-15T20:06:47.965Z,8.73
2019-05-15T20:09:14.675Z,8.05
2019-05-15T20:11:41.283Z,10.32
2019-05-15T20:14:07.867Z,12.13
2019-05-15T20:16:34.453Z,9.55
2019-05-15T20:19:01.028Z,9.08
2019-05-15T20:21:29.054Z,9.23
2019-05-15T20:23:57.874Z,9.75
2019-05-15T20:26:24.251Z,8.30
2019-05-15T20:28:50.854Z,8.58
2019-05-15T20:31:18.538Z,8.43
2019-05-15T20:33:45.796Z,8.33
2019-05-15T20:36:12.396Z,8.53
2019-05-15T20:38:39.687Z,8.40
2019-05-15T20:41:08.380Z,8.38
2019-05-15T20:43:34.865Z,9.10
2019-05-15T20:46:01.517Z,8.48
2019-05-15T20:48:28.941Z,7.47
2019-05-15T20:50:55.657Z,8.20
2019-05-15T20:53:22.246Z,8.28
2019-05-15T20:55:48.829Z,9.58
2019-05-15T20:58:15.584Z,7.08
2019-05-15T21:00:42.165Z,6.92
2019-05-15T21:03:08.739Z,8.23
2019-05-15T21:05:35.614Z,7.62
2019-05-15T21:08:02.187Z,7.85
2019-05-15T21:10:28.877Z,7.45
2019-05-15T21:12:55.478Z,7.75
2019-05-15T21:15:22.071Z,8.95
2019-05-15T21:17:57.429Z,9.40
2019-05-15T21:20:18.248Z,8.10
2019-05-15T21:22:45.075Z,10.05
2019-05-15T21:25:11.666Z,10.00
2019-05-15T21:27:43.140Z,9.10
2019-05-15T21:30:09.262Z,9.60
2019-05-15T21:32:38.156Z,7.85
2019-05-15T21:35:04.137Z,7.35
2019-05-15T21:37:30.749Z,13.08
2019-05-15T21:39:58.982Z,7.53
2019-05-15T21:42:25.820Z,7.37
2019-05-15T21:44:52.435Z,6.80
2019-05-15T21:47:19.008Z,6.90
2019-05-15T21:49:48.114Z,7.75
2019-05-15T21:52:14.208Z,7.25
2019-05-15T21:54:40.806Z,13.43
2019-05-15T21:57:28.307Z,14.05
2019-05-15T21:59:35.693Z,8.18
2019-05-15T22:02:02.285Z,6.20
2019-05-15T22:04:30.516Z,6.45
2019-05-15T22:06:58.433Z,6.75
2019-05-15T22:09:25.451Z,6.60
2019-05-15T22:11:52.023Z,7.62
2019-05-15T22:14:18.651Z,5.65
2019-05-15T22:16:45.229Z,5.95
2019-05-15T22:19:11.870Z,6.28
2019-05-15T22:21:40.654Z,5.80
2019-05-15T22:24:08.782Z,6.42
2019-05-15T22:26:35.091Z,7.10
2019-05-15T22:29:01.664Z,6.08
2019-05-15T22:31:28.552Z,5.53
2019-05-15T22:33:55.134Z,6.50
2019-05-15T22:36:21.703Z,5.92
2019-05-15T22:38:50.369Z,6.83
2019-05-15T22:41:18.771Z,5.42
2019-05-15T22:43:44.981Z,6.95
2019-05-15T22:46:11.546Z,6.58
2019-05-15T22:48:38.185Z,5.70
2019-05-15T22:51:04.782Z,6.50
2019-05-15T22:53:31.625Z,6.37
2019-05-15T22:55:58.802Z,6.62
2019-05-15T22:58:25.493Z,7.28
2019-05-15T23:00:52.072Z,7.92
2019-05-15T23:03:19.068Z,7.95
2019-05-15T23:05:45.727Z,7.15
2019-05-15T23:08:12.335Z,7.92
2019-05-15T23:10:38.946Z,7.83
2019-05-15T23:13:05.520Z,7.50
2019-05-15T23:15:32.388Z,7.60
2019-05-15T23:17:58.971Z,7.20
2019-05-15T23:20:25.616Z,8.23
2019-05-15T23:22:52.255Z,9.05
2019-05-15T23:25:18.824Z,8.53
2019-05-15T23:27:45.449Z,8.80
2019-05-15T23:30:12.121Z,8.43
2019-05-15T23:32:39.383Z,8.70
2019-05-15T23:35:06.206Z,8.68
2019-05-15T23:37:32.776Z,8.55
2019-05-15T23:39:59.383Z,8.00
2019-05-15T23:42:25.946Z,8.70
2019-05-15T23:44:52.520Z,8.98
2019-05-15T23:47:19.124Z,9.85
2019-05-15T23:49:45.703Z,8.95
2019-05-15T23:52:12.318Z,8.20
2019-05-15T23:54:38.882Z,8.58
2019-05-15T23:57:05.483Z,8.05
2019-05-15T23:59:32.082Z,8.63
